sensor_id;sensor_type;location;lat;lon;timestamp;P1;durP1;ratioP1;P2;durP2;ratioP2
17890;SDS011;9071;48.220;14.480;2023-05-31T00:01:52;5.30;;;3.00;;
17890;SDS011;9071;48.220;14.480;2023-05-31T00:06:54;6.07;;;3.23;;
17890;SDS011;9071;48.220;14.480;2023-05-31T00:11:56;9.63;;;3.20;;
17890;SDS011;9071;48.220;14.480;2023-05-31T00:17:00;6.80;;;3.20;;
17890;SDS011;9071;48.220;14.480;2023-05-31T00:22:02;5.23;;;3.20;;
17890;SDS011;9071;48.220;14.480;2023-05-31T00:27:04;7.63;;;3.53;;
17890;SDS011;9071;48.220;14.480;2023-05-31T00:32:08;8.30;;;3.57;;
17890;SDS011;9071;48.220;14.480;2023-05-31T00:37:10;9.30;;;3.93;;
17890;SDS011;9071;48.220;14.480;2023-05-31T00:42:12;8.47;;;3.43;;
17890;SDS011;9071;48.220;14.480;2023-05-31T00:47:16;8.40;;;3.27;;
17890;SDS011;9071;48.220;14.480;2023-05-31T00:52:18;4.83;;;3.10;;
17890;SDS011;9071;48.220;14.480;2023-05-31T00:57:20;6.63;;;3.13;;
17890;SDS011;9071;48.220;14.480;2023-05-31T01:02:24;10.17;;;3.40;;
17890;SDS011;9071;48.220;14.480;2023-05-31T01:07:26;7.37;;;3.20;;
17890;SDS011;9071;48.220;14.480;2023-05-31T01:12:29;5.23;;;3.23;;
17890;SDS011;9071;48.220;14.480;2023-05-31T01:17:41;9.37;;;3.37;;
17890;SDS011;9071;48.220;14.480;2023-05-31T01:22:55;7.13;;;3.60;;
17890;SDS011;9071;48.220;14.480;2023-05-31T01:28:06;8.40;;;3.30;;
17890;SDS011;9071;48.220;14.480;2023-05-31T01:33:10;5.37;;;3.40;;
17890;SDS011;9071;48.220;14.480;2023-05-31T01:38:14;5.97;;;3.70;;
17890;SDS011;9071;48.220;14.480;2023-05-31T01:43:17;8.63;;;3.60;;
17890;SDS011;9071;48.220;14.480;2023-05-31T01:48:21;7.30;;;3.20;;
17890;SDS011;9071;48.220;14.480;2023-05-31T01:53:23;9.03;;;3.13;;
17890;SDS011;9071;48.220;14.480;2023-05-31T01:58:27;5.53;;;3.00;;
17890;SDS011;9071;48.220;14.480;2023-05-31T02:03:30;9.37;;;3.73;;
17890;SDS011;9071;48.220;14.480;2023-05-31T02:08:33;5.33;;;3.20;;
17890;SDS011;9071;48.220;14.480;2023-05-31T02:13:36;8.50;;;3.50;;
17890;SDS011;9071;48.220;14.480;2023-05-31T02:18:38;6.87;;;3.03;;
17890;SDS011;9071;48.220;14.480;2023-05-31T02:23:41;5.93;;;3.23;;
17890;SDS011;9071;48.220;14.480;2023-05-31T02:28:44;7.23;;;3.47;;
17890;SDS011;9071;48.220;14.480;2023-05-31T02:33:47;6.07;;;3.03;;
17890;SDS011;9071;48.220;14.480;2023-05-31T02:38:49;9.63;;;3.27;;
17890;SDS011;9071;48.220;14.480;2023-05-31T02:43:52;8.07;;;3.20;;
17890;SDS011;9071;48.220;14.480;2023-05-31T02:48:54;8.53;;;3.60;;
17890;SDS011;9071;48.220;14.480;2023-05-31T02:53:56;6.20;;;3.40;;
17890;SDS011;9071;48.220;14.480;2023-05-31T02:59:00;4.30;;;3.20;;
17890;SDS011;9071;48.220;14.480;2023-05-31T03:04:02;7.10;;;3.67;;
17890;SDS011;9071;48.220;14.480;2023-05-31T03:09:04;9.23;;;3.80;;
17890;SDS011;9071;48.220;14.480;2023-05-31T03:14:09;6.80;;;3.00;;
17890;SDS011;9071;48.220;14.480;2023-05-31T03:19:11;6.17;;;3.57;;
17890;SDS011;9071;48.220;14.480;2023-05-31T03:24:13;8.70;;;3.20;;
17890;SDS011;9071;48.220;14.480;2023-05-31T03:29:17;6.67;;;4.10;;
17890;SDS011;9071;48.220;14.480;2023-05-31T03:34:19;6.50;;;3.07;;
17890;SDS011;9071;48.220;14.480;2023-05-31T03:39:23;9.30;;;4.07;;
17890;SDS011;9071;48.220;14.480;2023-05-31T03:44:26;6.27;;;3.77;;
17890;SDS011;9071;48.220;14.480;2023-05-31T03:49:28;5.40;;;3.30;;
17890;SDS011;9071;48.220;14.480;2023-05-31T03:54:30;8.10;;;3.83;;
17890;SDS011;9071;48.220;14.480;2023-05-31T03:59:34;7.60;;;3.77;;
17890;SDS011;9071;48.220;14.480;2023-05-31T04:04:36;8.07;;;3.90;;
17890;SDS011;9071;48.220;14.480;2023-05-31T04:09:38;10.63;;;3.80;;
17890;SDS011;9071;48.220;14.480;2023-05-31T04:14:41;10.07;;;3.90;;
17890;SDS011;9071;48.220;14.480;2023-05-31T04:19:43;6.90;;;3.23;;
17890;SDS011;9071;48.220;14.480;2023-05-31T04:24:46;9.17;;;4.30;;
17890;SDS011;9071;48.220;14.480;2023-05-31T04:29:49;9.27;;;3.83;;
17890;SDS011;9071;48.220;14.480;2023-05-31T04:34:51;10.03;;;4.30;;
17890;SDS011;9071;48.220;14.480;2023-05-31T04:39:57;11.93;;;3.70;;
17890;SDS011;9071;48.220;14.480;2023-05-31T04:45:02;11.37;;;3.70;;
17890;SDS011;9071;48.220;14.480;2023-05-31T04:50:04;8.43;;;3.13;;
17890;SDS011;9071;48.220;14.480;2023-05-31T04:55:07;11.90;;;3.50;;
17890;SDS011;9071;48.220;14.480;2023-05-31T05:00:12;9.73;;;3.03;;
17890;SDS011;9071;48.220;14.480;2023-05-31T05:05:16;6.50;;;3.00;;
17890;SDS011;9071;48.220;14.480;2023-05-31T05:10:19;11.50;;;3.50;;
17890;SDS011;9071;48.220;14.480;2023-05-31T05:15:22;6.17;;;2.90;;
17890;SDS011;9071;48.220;14.480;2023-05-31T05:20:24;6.83;;;2.50;;
17890;SDS011;9071;48.220;14.480;2023-05-31T05:25:27;11.50;;;2.90;;
17890;SDS011;9071;48.220;14.480;2023-05-31T05:30:31;4.25;;;2.60;;
17890;SDS011;9071;48.220;14.480;2023-05-31T05:35:33;7.68;;;3.00;;
17890;SDS011;9071;48.220;14.480;2023-05-31T05:40:35;12.80;;;3.55;;
17890;SDS011;9071;48.220;14.480;2023-05-31T05:45:38;9.55;;;3.10;;
17890;SDS011;9071;48.220;14.480;2023-05-31T05:50:41;8.90;;;3.17;;
17890;SDS011;9071;48.220;14.480;2023-05-31T05:55:47;5.43;;;2.78;;
17890;SDS011;9071;48.220;14.480;2023-05-31T06:00:52;8.82;;;2.88;;
17890;SDS011;9071;48.220;14.480;2023-05-31T06:05:54;10.05;;;2.95;;
17890;SDS011;9071;48.220;14.480;2023-05-31T06:10:56;7.80;;;2.83;;
17890;SDS011;9071;48.220;14.480;2023-05-31T06:15:59;9.48;;;2.85;;
17890;SDS011;9071;48.220;14.480;2023-05-31T06:21:03;5.10;;;2.60;;
17890;SDS011;9071;48.220;14.480;2023-05-31T06:26:05;5.93;;;3.00;;
17890;SDS011;9071;48.220;14.480;2023-05-31T06:31:08;7.75;;;2.85;;
17890;SDS011;9071;48.220;14.480;2023-05-31T06:36:10;5.47;;;2.65;;
17890;SDS011;9071;48.220;14.480;2023-05-31T06:41:13;5.57;;;2.58;;
17890;SDS011;9071;48.220;14.480;2023-05-31T06:46:16;9.43;;;3.25;;
17890;SDS011;9071;48.220;14.480;2023-05-31T06:51:18;9.20;;;3.10;;
17890;SDS011;9071;48.220;14.480;2023-05-31T06:56:22;5.95;;;2.50;;
17890;SDS011;9071;48.220;14.480;2023-05-31T07:01:27;4.75;;;2.50;;
17890;SDS011;9071;48.220;14.480;2023-05-31T07:06:30;7.35;;;2.78;;
17890;SDS011;9071;48.220;14.480;2023-05-31T07:11:32;8.27;;;2.95;;
17890;SDS011;9071;48.220;14.480;2023-05-31T07:16:35;7.03;;;2.67;;
17890;SDS011;9071;48.220;14.480;2023-05-31T07:21:37;9.98;;;3.40;;
17890;SDS011;9071;48.220;14.480;2023-05-31T07:26:39;6.65;;;3.45;;
17890;SDS011;9071;48.220;14.480;2023-05-31T07:31:43;5.95;;;2.70;;
17890;SDS011;9071;48.220;14.480;2023-05-31T07:36:45;8.20;;;3.00;;
17890;SDS011;9071;48.220;14.480;2023-05-31T07:41:47;8.23;;;2.80;;
17890;SDS011;9071;48.220;14.480;2023-05-31T07:46:51;7.07;;;2.97;;
17890;SDS011;9071;48.220;14.480;2023-05-31T07:51:53;12.32;;;3.13;;
17890;SDS011;9071;48.220;14.480;2023-05-31T07:56:55;8.00;;;3.20;;
17890;SDS011;9071;48.220;14.480;2023-05-31T08:01:58;7.55;;;3.00;;
17890;SDS011;9071;48.220;14.480;2023-05-31T08:07:00;6.70;;;3.00;;
17890;SDS011;9071;48.220;14.480;2023-05-31T08:12:03;8.73;;;3.53;;
17890;SDS011;9071;48.220;14.480;2023-05-31T08:17:08;9.88;;;3.83;;
17890;SDS011;9071;48.220;14.480;2023-05-31T08:22:10;9.40;;;3.45;;
17890;SDS011;9071;48.220;14.480;2023-05-31T08:27:12;6.78;;;3.03;;
17890;SDS011;9071;48.220;14.480;2023-05-31T08:32:15;7.68;;;3.40;;
17890;SDS011;9071;48.220;14.480;2023-05-31T08:37:18;6.82;;;3.08;;
17890;SDS011;9071;48.220;14.480;2023-05-31T08:42:22;8.75;;;3.13;;
17890;SDS011;9071;48.220;14.480;2023-05-31T08:47:31;7.38;;;3.40;;
17890;SDS011;9071;48.220;14.480;2023-05-31T08:52:37;8.48;;;3.17;;
17890;SDS011;9071;48.220;14.480;2023-05-31T08:57:39;6.65;;;3.55;;
17890;SDS011;9071;48.220;14.480;2023-05-31T09:02:43;10.82;;;3.47;;
17890;SDS011;9071;48.220;14.480;2023-05-31T09:07:47;6.45;;;3.50;;
17890;SDS011;9071;48.220;14.480;2023-05-31T09:12:50;8.10;;;3.92;;
17890;SDS011;9071;48.220;14.480;2023-05-31T09:17:55;5.28;;;3.45;;
17890;SDS011;9071;48.220;14.480;2023-05-31T09:23:01;14.15;;;3.58;;
17890;SDS011;9071;48.220;14.480;2023-05-31T09:28:04;8.13;;;3.80;;
17890;SDS011;9071;48.220;14.480;2023-05-31T09:33:08;12.35;;;3.53;;
17890;SDS011;9071;48.220;14.480;2023-05-31T09:38:10;11.85;;;3.95;;
17890;SDS011;9071;48.220;14.480;2023-05-31T09:43:15;8.90;;;3.47;;
17890;SDS011;9071;48.220;14.480;2023-05-31T09:48:18;10.00;;;3.60;;
17890;SDS011;9071;48.220;14.480;2023-05-31T09:53:20;8.63;;;3.95;;
17890;SDS011;9071;48.220;14.480;2023-05-31T09:58:27;9.23;;;3.80;;
17890;SDS011;9071;48.220;14.480;2023-05-31T10:03:33;9.13;;;3.65;;
17890;SDS011;9071;48.220;14.480;2023-05-31T10:08:36;5.65;;;3.08;;
17890;SDS011;9071;48.220;14.480;2023-05-31T10:13:40;11.48;;;3.88;;
17890;SDS011;9071;48.220;14.480;2023-05-31T10:18:46;8.05;;;3.47;;
17890;SDS011;9071;48.220;14.480;2023-05-31T10:23:53;8.30;;;3.63;;
17890;SDS011;9071;48.220;14.480;2023-05-31T10:28:59;7.13;;;3.65;;
17890;SDS011;9071;48.220;14.480;2023-05-31T10:34:10;8.20;;;3.80;;
17890;SDS011;9071;48.220;14.480;2023-05-31T10:39:23;6.95;;;3.80;;
17890;SDS011;9071;48.220;14.480;2023-05-31T10:44:31;11.80;;;3.90;;
17890;SDS011;9071;48.220;14.480;2023-05-31T10:49:41;7.10;;;3.30;;
17890;SDS011;9071;48.220;14.480;2023-05-31T10:54:45;8.80;;;3.63;;
17890;SDS011;9071;48.220;14.480;2023-05-31T10:59:47;6.40;;;3.38;;
17890;SDS011;9071;48.220;14.480;2023-05-31T11:04:51;9.18;;;3.45;;
17890;SDS011;9071;48.220;14.480;2023-05-31T11:09:53;7.97;;;3.95;;
17890;SDS011;9071;48.220;14.480;2023-05-31T11:15:00;7.65;;;3.55;;
17890;SDS011;9071;48.220;14.480;2023-05-31T11:20:05;6.20;;;3.60;;
17890;SDS011;9071;48.220;14.480;2023-05-31T11:25:08;9.82;;;3.78;;
17890;SDS011;9071;48.220;14.480;2023-05-31T11:30:21;7.72;;;3.60;;
17890;SDS011;9071;48.220;14.480;2023-05-31T11:35:24;13.75;;;3.83;;
17890;SDS011;9071;48.220;14.480;2023-05-31T11:40:29;8.95;;;4.10;;
17890;SDS011;9071;48.220;14.480;2023-05-31T11:45:32;4.00;;;3.33;;
17890;SDS011;9071;48.220;14.480;2023-05-31T11:50:36;9.45;;;4.53;;
17890;SDS011;9071;48.220;14.480;2023-05-31T11:55:38;9.55;;;4.00;;
17890;SDS011;9071;48.220;14.480;2023-05-31T12:00:45;5.68;;;3.90;;
17890;SDS011;9071;48.220;14.480;2023-05-31T12:05:55;7.78;;;4.43;;
17890;SDS011;9071;48.220;14.480;2023-05-31T12:11:02;7.15;;;3.97;;
17890;SDS011;9071;48.220;14.480;2023-05-31T12:16:05;8.90;;;4.40;;
17890;SDS011;9071;48.220;14.480;2023-05-31T12:21:09;9.20;;;4.68;;
17890;SDS011;9071;48.220;14.480;2023-05-31T12:26:15;7.95;;;3.83;;
17890;SDS011;9071;48.220;14.480;2023-05-31T12:31:21;8.88;;;4.28;;
17890;SDS011;9071;48.220;14.480;2023-05-31T12:36:25;7.95;;;4.45;;
17890;SDS011;9071;48.220;14.480;2023-05-31T12:41:28;7.63;;;4.20;;
17890;SDS011;9071;48.220;14.480;2023-05-31T12:46:36;6.53;;;4.70;;
17890;SDS011;9071;48.220;14.480;2023-05-31T12:51:40;6.63;;;4.53;;
17890;SDS011;9071;48.220;14.480;2023-05-31T12:56:43;8.63;;;4.60;;
17890;SDS011;9071;48.220;14.480;2023-05-31T13:01:45;6.88;;;3.92;;
17890;SDS011;9071;48.220;14.480;2023-05-31T13:06:49;6.55;;;4.35;;
17890;SDS011;9071;48.220;14.480;2023-05-31T13:11:51;7.13;;;4.85;;
17890;SDS011;9071;48.220;14.480;2023-05-31T13:16:53;7.05;;;4.63;;
17890;SDS011;9071;48.220;14.480;2023-05-31T13:21:57;7.45;;;4.78;;
17890;SDS011;9071;48.220;14.480;2023-05-31T13:26:59;7.45;;;4.78;;
17890;SDS011;9071;48.220;14.480;2023-05-31T13:32:01;6.68;;;4.60;;
17890;SDS011;9071;48.220;14.480;2023-05-31T13:37:05;7.30;;;4.13;;
17890;SDS011;9071;48.220;14.480;2023-05-31T13:42:07;7.15;;;4.68;;
17890;SDS011;9071;48.220;14.480;2023-05-31T13:47:10;7.65;;;4.95;;
17890;SDS011;9071;48.220;14.480;2023-05-31T13:52:13;10.13;;;4.50;;
17890;SDS011;9071;48.220;14.480;2023-05-31T13:57:16;9.30;;;4.53;;
17890;SDS011;9071;48.220;14.480;2023-05-31T14:02:18;11.25;;;5.05;;
17890;SDS011;9071;48.220;14.480;2023-05-31T14:07:35;7.63;;;4.70;;
17890;SDS011;9071;48.220;14.480;2023-05-31T14:12:37;7.03;;;4.78;;
17890;SDS011;9071;48.220;14.480;2023-05-31T14:17:39;7.40;;;5.05;;
17890;SDS011;9071;48.220;14.480;2023-05-31T14:22:43;9.18;;;4.47;;
17890;SDS011;9071;48.220;14.480;2023-05-31T14:27:45;6.13;;;4.40;;
17890;SDS011;9071;48.220;14.480;2023-05-31T14:32:47;7.03;;;4.75;;
17890;SDS011;9071;48.220;14.480;2023-05-31T14:37:50;10.85;;;4.40;;
17890;SDS011;9071;48.220;14.480;2023-05-31T14:42:52;6.47;;;4.70;;
17890;SDS011;9071;48.220;14.480;2023-05-31T14:47:54;8.15;;;4.50;;
17890;SDS011;9071;48.220;14.480;2023-05-31T14:53:00;9.07;;;5.65;;
17890;SDS011;9071;48.220;14.480;2023-05-31T14:58:02;7.25;;;4.43;;
17890;SDS011;9071;48.220;14.480;2023-05-31T15:03:05;6.88;;;4.35;;
17890;SDS011;9071;48.220;14.480;2023-05-31T15:08:08;8.23;;;5.13;;
17890;SDS011;9071;48.220;14.480;2023-05-31T15:13:10;9.02;;;4.57;;
17890;SDS011;9071;48.220;14.480;2023-05-31T15:18:12;9.02;;;4.70;;
17890;SDS011;9071;48.220;14.480;2023-05-31T15:23:16;7.68;;;4.22;;
17890;SDS011;9071;48.220;14.480;2023-05-31T15:28:18;10.40;;;4.97;;
17890;SDS011;9071;48.220;14.480;2023-05-31T15:33:20;6.95;;;4.65;;
17890;SDS011;9071;48.220;14.480;2023-05-31T15:38:23;7.47;;;4.55;;
17890;SDS011;9071;48.220;14.480;2023-05-31T15:43:26;9.65;;;4.38;;
17890;SDS011;9071;48.220;14.480;2023-05-31T15:48:28;6.03;;;4.53;;
17890;SDS011;9071;48.220;14.480;2023-05-31T15:53:32;9.63;;;4.47;;
17890;SDS011;9071;48.220;14.480;2023-05-31T15:58:33;10.55;;;4.72;;
17890;SDS011;9071;48.220;14.480;2023-05-31T16:03:35;7.60;;;4.70;;
17890;SDS011;9071;48.220;14.480;2023-05-31T16:08:39;7.93;;;4.60;;
17890;SDS011;9071;48.220;14.480;2023-05-31T16:13:41;6.70;;;4.30;;
17890;SDS011;9071;48.220;14.480;2023-05-31T16:18:43;6.80;;;4.25;;
17890;SDS011;9071;48.220;14.480;2023-05-31T16:23:46;6.68;;;4.57;;
17890;SDS011;9071;48.220;14.480;2023-05-31T16:28:48;10.02;;;4.78;;
17890;SDS011;9071;48.220;14.480;2023-05-31T16:33:51;10.10;;;5.00;;
17890;SDS011;9071;48.220;14.480;2023-05-31T16:38:54;8.15;;;4.78;;
17890;SDS011;9071;48.220;14.480;2023-05-31T16:43:56;8.90;;;4.72;;
17890;SDS011;9071;48.220;14.480;2023-05-31T16:48:58;6.28;;;4.50;;
17890;SDS011;9071;48.220;14.480;2023-05-31T16:54:01;8.68;;;5.10;;
17890;SDS011;9071;48.220;14.480;2023-05-31T16:59:04;8.63;;;4.57;;
17890;SDS011;9071;48.220;14.480;2023-05-31T17:04:06;7.10;;;4.47;;
17890;SDS011;9071;48.220;14.480;2023-05-31T17:09:10;7.15;;;4.85;;
17890;SDS011;9071;48.220;14.480;2023-05-31T17:14:12;10.30;;;4.50;;
17890;SDS011;9071;48.220;14.480;2023-05-31T17:19:14;9.27;;;5.10;;
17890;SDS011;9071;48.220;14.480;2023-05-31T17:24:17;10.20;;;4.57;;
17890;SDS011;9071;48.220;14.480;2023-05-31T17:29:19;9.07;;;4.68;;
17890;SDS011;9071;48.220;14.480;2023-05-31T17:34:21;10.30;;;5.07;;
17890;SDS011;9071;48.220;14.480;2023-05-31T17:39:25;6.93;;;4.28;;
17890;SDS011;9071;48.220;14.480;2023-05-31T17:44:27;6.57;;;4.20;;
17890;SDS011;9071;48.220;14.480;2023-05-31T17:49:29;7.38;;;4.40;;
17890;SDS011;9071;48.220;14.480;2023-05-31T17:54:32;7.72;;;4.40;;
17890;SDS011;9071;48.220;14.480;2023-05-31T17:59:35;7.32;;;4.30;;
17890;SDS011;9071;48.220;14.480;2023-05-31T18:04:37;8.20;;;4.63;;
17890;SDS011;9071;48.220;14.480;2023-05-31T18:09:40;7.15;;;4.40;;
17890;SDS011;9071;48.220;14.480;2023-05-31T18:14:42;6.55;;;4.47;;
17890;SDS011;9071;48.220;14.480;2023-05-31T18:19:44;6.40;;;4.13;;
17890;SDS011;9071;48.220;14.480;2023-05-31T18:24:48;6.45;;;4.13;;
17890;SDS011;9071;48.220;14.480;2023-05-31T18:29:50;7.63;;;4.25;;
17890;SDS011;9071;48.220;14.480;2023-05-31T18:34:52;6.40;;;4.38;;
17890;SDS011;9071;48.220;14.480;2023-05-31T18:39:56;6.75;;;4.38;;
17890;SDS011;9071;48.220;14.480;2023-05-31T18:44:59;7.30;;;4.22;;
17890;SDS011;9071;48.220;14.480;2023-05-31T18:50:01;9.15;;;4.30;;
17890;SDS011;9071;48.220;14.480;2023-05-31T18:55:05;10.50;;;4.78;;
17890;SDS011;9071;48.220;14.480;2023-05-31T19:00:08;6.97;;;4.20;;
17890;SDS011;9071;48.220;14.480;2023-05-31T19:05:11;6.57;;;4.40;;
17890;SDS011;9071;48.220;14.480;2023-05-31T19:10:14;8.68;;;4.90;;
17890;SDS011;9071;48.220;14.480;2023-05-31T19:15:17;6.28;;;4.35;;
17890;SDS011;9071;48.220;14.480;2023-05-31T19:20:19;10.40;;;4.30;;
17890;SDS011;9071;48.220;14.480;2023-05-31T19:25:22;9.73;;;4.80;;
17890;SDS011;9071;48.220;14.480;2023-05-31T19:30:25;7.07;;;4.45;;
17890;SDS011;9071;48.220;14.480;2023-05-31T19:35:27;7.97;;;4.78;;
17890;SDS011;9071;48.220;14.480;2023-05-31T19:40:30;9.93;;;4.47;;
17890;SDS011;9071;48.220;14.480;2023-05-31T19:45:33;9.13;;;4.65;;
17890;SDS011;9071;48.220;14.480;2023-05-31T19:50:35;7.85;;;4.60;;
17890;SDS011;9071;48.220;14.480;2023-05-31T19:55:39;10.77;;;4.90;;
17890;SDS011;9071;48.220;14.480;2023-05-31T20:00:42;10.55;;;5.25;;
17890;SDS011;9071;48.220;14.480;2023-05-31T20:05:45;9.00;;;5.25;;
17890;SDS011;9071;48.220;14.480;2023-05-31T20:10:48;7.75;;;4.78;;
17890;SDS011;9071;48.220;14.480;2023-05-31T20:15:50;11.07;;;4.78;;
17890;SDS011;9071;48.220;14.480;2023-05-31T20:20:52;8.70;;;4.63;;
17890;SDS011;9071;48.220;14.480;2023-05-31T20:25:56;7.93;;;4.68;;
17890;SDS011;9071;48.220;14.480;2023-05-31T20:30:58;6.00;;;4.20;;
17890;SDS011;9071;48.220;14.480;2023-05-31T20:36:00;11.30;;;5.05;;
17890;SDS011;9071;48.220;14.480;2023-05-31T20:41:03;7.32;;;4.57;;
17890;SDS011;9071;48.220;14.480;2023-05-31T20:46:06;8.60;;;5.22;;
17890;SDS011;9071;48.220;14.480;2023-05-31T20:51:08;9.50;;;5.50;;
17890;SDS011;9071;48.220;14.480;2023-05-31T20:56:12;10.63;;;5.25;;
17890;SDS011;9071;48.220;14.480;2023-05-31T21:01:14;9.10;;;5.90;;
17890;SDS011;9071;48.220;14.480;2023-05-31T21:06:16;11.27;;;5.15;;
17890;SDS011;9071;48.220;14.480;2023-05-31T21:11:20;8.27;;;5.45;;
17890;SDS011;9071;48.220;14.480;2023-05-31T21:16:23;8.68;;;5.25;;
17890;SDS011;9071;48.220;14.480;2023-05-31T21:21:25;9.45;;;5.35;;
17890;SDS011;9071;48.220;14.480;2023-05-31T21:26:28;8.10;;;5.38;;
17890;SDS011;9071;48.220;14.480;2023-05-31T21:31:30;12.50;;;6.00;;
17890;SDS011;9071;48.220;14.480;2023-05-31T21:36:33;10.93;;;6.10;;
17890;SDS011;9071;48.220;14.480;2023-05-31T21:41:36;10.60;;;5.72;;
17890;SDS011;9071;48.220;14.480;2023-05-31T21:46:38;10.57;;;5.80;;
17890;SDS011;9071;48.220;14.480;2023-05-31T21:51:40;10.25;;;5.70;;
17890;SDS011;9071;48.220;14.480;2023-05-31T21:56:44;7.75;;;5.90;;
17890;SDS011;9071;48.220;14.480;2023-05-31T22:01:46;10.98;;;5.97;;
17890;SDS011;9071;48.220;14.480;2023-05-31T22:06:48;7.22;;;5.57;;
17890;SDS011;9071;48.220;14.480;2023-05-31T22:11:51;11.52;;;6.07;;
17890;SDS011;9071;48.220;14.480;2023-05-31T22:16:53;9.35;;;6.18;;
17890;SDS011;9071;48.220;14.480;2023-05-31T22:21:57;11.73;;;6.20;;
17890;SDS011;9071;48.220;14.480;2023-05-31T22:27:00;11.17;;;6.67;;
17890;SDS011;9071;48.220;14.480;2023-05-31T22:32:02;11.25;;;6.50;;
17890;SDS011;9071;48.220;14.480;2023-05-31T22:37:05;14.43;;;6.50;;
17890;SDS011;9071;48.220;14.480;2023-05-31T22:42:09;9.35;;;6.53;;
17890;SDS011;9071;48.220;14.480;2023-05-31T22:47:12;10.83;;;6.57;;
17890;SDS011;9071;48.220;14.480;2023-05-31T22:52:15;10.57;;;6.23;;
17890;SDS011;9071;48.220;14.480;2023-05-31T22:57:21;12.30;;;6.50;;
17890;SDS011;9071;48.220;14.480;2023-05-31T23:02:23;8.00;;;6.43;;
17890;SDS011;9071;48.220;14.480;2023-05-31T23:07:26;9.80;;;6.67;;
17890;SDS011;9071;48.220;14.480;2023-05-31T23:12:31;13.27;;;6.83;;
17890;SDS011;9071;48.220;14.480;2023-05-31T23:17:33;10.40;;;6.87;;
17890;SDS011;9071;48.220;14.480;2023-05-31T23:22:37;12.03;;;6.93;;
17890;SDS011;9071;48.220;14.480;2023-05-31T23:27:41;9.93;;;6.97;;
17890;SDS011;9071;48.220;14.480;2023-05-31T23:32:44;14.27;;;9.37;;
17890;SDS011;9071;48.220;14.480;2023-05-31T23:37:46;18.03;;;8.80;;
17890;SDS011;9071;48.220;14.480;2023-05-31T23:42:49;14.23;;;8.57;;
17890;SDS011;9071;48.220;14.480;2023-05-31T23:47:51;14.57;;;8.07;;
17890;SDS011;9071;48.220;14.480;2023-05-31T23:52:53;13.10;;;8.33;;
17890;SDS011;9071;48.220;14.480;2023-05-31T23:57:57;14.23;;;7.90;;
